sensor_id;sensor_type;location;lat;lon;timestamp;P1;durP1;ratioP1;P2;durP2;ratioP2
9809;SDS011;4944;52.514;13.192;2023-04-12T00:00:42;2.20;;;2.00;;
9809;SDS011;4944;52.514;13.192;2023-04-12T00:03:11;5.97;;;1.63;;
9809;SDS011;4944;52.514;13.192;2023-04-12T00:05:44;2.10;;;1.27;;
9809;SDS011;4944;52.514;13.192;2023-04-12T00:08:12;2.47;;;1.47;;
9809;SDS011;4944;52.514;13.192;2023-04-12T00:10:40;2.10;;;1.50;;
9809;SDS011;4944;52.514;13.192;2023-04-12T00:13:07;4.20;;;1.60;;
9809;SDS011;4944;52.514;13.192;2023-04-12T00:15:34;2.63;;;1.50;;
9809;SDS011;4944;52.514;13.192;2023-04-12T00:18:01;2.63;;;1.60;;
9809;SDS011;4944;52.514;13.192;2023-04-12T00:20:29;1.70;;;1.60;;
9809;SDS011;4944;52.514;13.192;2023-04-12T00:22:56;2.17;;;1.57;;
9809;SDS011;4944;52.514;13.192;2023-04-12T00:25:23;2.70;;;1.40;;
9809;SDS011;4944;52.514;13.192;2023-04-12T00:27:50;3.37;;;1.53;;
9809;SDS011;4944;52.514;13.192;2023-04-12T00:30:17;2.83;;;1.40;;
9809;SDS011;4944;52.514;13.192;2023-04-12T00:32:45;1.60;;;1.50;;
9809;SDS011;4944;52.514;13.192;2023-04-12T00:35:12;3.07;;;1.60;;
9809;SDS011;4944;52.514;13.192;2023-04-12T00:37:40;1.97;;;1.53;;
9809;SDS011;4944;52.514;13.192;2023-04-12T00:40:07;3.17;;;1.50;;
9809;SDS011;4944;52.514;13.192;2023-04-12T00:42:35;1.67;;;1.57;;
9809;SDS011;4944;52.514;13.192;2023-04-12T00:45:02;1.90;;;1.47;;
9809;SDS011;4944;52.514;13.192;2023-04-12T00:47:30;2.37;;;1.50;;
9809;SDS011;4944;52.514;13.192;2023-04-12T00:50:00;1.40;;;1.30;;
9809;SDS011;4944;52.514;13.192;2023-04-12T00:52:27;3.07;;;1.57;;
9809;SDS011;4944;52.514;13.192;2023-04-12T00:54:59;1.20;;;1.17;;
9809;SDS011;4944;52.514;13.192;2023-04-12T00:57:27;2.33;;;1.30;;
9809;SDS011;4944;52.514;13.192;2023-04-12T00:59:57;1.53;;;1.40;;
9809;SDS011;4944;52.514;13.192;2023-04-12T01:02:24;1.73;;;1.40;;
9809;SDS011;4944;52.514;13.192;2023-04-12T01:04:51;2.03;;;1.60;;
9809;SDS011;4944;52.514;13.192;2023-04-12T01:07:28;1.27;;;1.17;;
9809;SDS011;4944;52.514;13.192;2023-04-12T01:10:12;1.30;;;1.30;;
9809;SDS011;4944;52.514;13.192;2023-04-12T01:12:52;5.03;;;1.40;;
9809;SDS011;4944;52.514;13.192;2023-04-12T01:15:31;1.10;;;1.10;;
9809;SDS011;4944;52.514;13.192;2023-04-12T01:18:02;2.93;;;1.30;;
9809;SDS011;4944;52.514;13.192;2023-04-12T01:20:35;1.80;;;1.30;;
9809;SDS011;4944;52.514;13.192;2023-04-12T01:23:16;1.87;;;1.70;;
9809;SDS011;4944;52.514;13.192;2023-04-12T01:26:13;1.27;;;1.17;;
9809;SDS011;4944;52.514;13.192;2023-04-12T01:28:58;1.73;;;1.10;;
9809;SDS011;4944;52.514;13.192;2023-04-12T01:31:28;1.70;;;1.47;;
9809;SDS011;4944;52.514;13.192;2023-04-12T01:33:58;1.20;;;1.10;;
9809;SDS011;4944;52.514;13.192;2023-04-12T01:36:26;2.03;;;1.30;;
9809;SDS011;4944;52.514;13.192;2023-04-12T01:38:55;13.60;;;2.40;;
9809;SDS011;4944;52.514;13.192;2023-04-12T01:41:23;2.30;;;1.43;;
9809;SDS011;4944;52.514;13.192;2023-04-12T01:43:50;1.20;;;1.10;;
9809;SDS011;4944;52.514;13.192;2023-04-12T01:46:19;1.40;;;1.30;;
9809;SDS011;4944;52.514;13.192;2023-04-12T01:48:48;1.37;;;1.27;;
9809;SDS011;4944;52.514;13.192;2023-04-12T01:51:18;3.53;;;1.50;;
9809;SDS011;4944;52.514;13.192;2023-04-12T01:53:53;1.10;;;1.10;;
9809;SDS011;4944;52.514;13.192;2023-04-12T01:56:25;4.07;;;1.57;;
9809;SDS011;4944;52.514;13.192;2023-04-12T01:58:58;3.43;;;1.40;;
9809;SDS011;4944;52.514;13.192;2023-04-12T02:01:28;2.43;;;1.47;;
9809;SDS011;4944;52.514;13.192;2023-04-12T02:03:56;1.63;;;1.20;;
9809;SDS011;4944;52.514;13.192;2023-04-12T02:06:24;1.97;;;1.30;;
9809;SDS011;4944;52.514;13.192;2023-04-12T02:08:55;2.50;;;1.30;;
9809;SDS011;4944;52.514;13.192;2023-04-12T02:11:23;2.13;;;1.50;;
9809;SDS011;4944;52.514;13.192;2023-04-12T02:13:50;3.27;;;1.30;;
9809;SDS011;4944;52.514;13.192;2023-04-12T02:16:17;1.50;;;1.40;;
9809;SDS011;4944;52.514;13.192;2023-04-12T02:18:48;2.33;;;1.50;;
9809;SDS011;4944;52.514;13.192;2023-04-12T02:21:15;1.43;;;1.30;;
9809;SDS011;4944;52.514;13.192;2023-04-12T02:23:42;3.43;;;1.80;;
9809;SDS011;4944;52.514;13.192;2023-04-12T02:26:09;2.67;;;1.50;;
9809;SDS011;4944;52.514;13.192;2023-04-12T02:28:36;1.47;;;1.37;;
9809;SDS011;4944;52.514;13.192;2023-04-12T02:31:04;1.77;;;1.67;;
9809;SDS011;4944;52.514;13.192;2023-04-12T02:33:32;1.70;;;1.60;;
9809;SDS011;4944;52.514;13.192;2023-04-12T02:36:01;1.20;;;1.10;;
9809;SDS011;4944;52.514;13.192;2023-04-12T02:38:28;3.60;;;1.30;;
9809;SDS011;4944;52.514;13.192;2023-04-12T02:40:55;2.63;;;1.60;;
9809;SDS011;4944;52.514;13.192;2023-04-12T02:43:23;2.40;;;1.33;;
9809;SDS011;4944;52.514;13.192;2023-04-12T02:45:50;1.60;;;1.50;;
9809;SDS011;4944;52.514;13.192;2023-04-12T02:48:17;1.50;;;1.40;;
9809;SDS011;4944;52.514;13.192;2023-04-12T02:50:44;5.07;;;1.40;;
9809;SDS011;4944;52.514;13.192;2023-04-12T02:53:12;1.97;;;1.70;;
9809;SDS011;4944;52.514;13.192;2023-04-12T02:55:41;3.23;;;1.50;;
9809;SDS011;4944;52.514;13.192;2023-04-12T02:58:08;1.90;;;1.77;;
9809;SDS011;4944;52.514;13.192;2023-04-12T03:00:36;1.67;;;1.30;;
9809;SDS011;4944;52.514;13.192;2023-04-12T03:03:03;3.17;;;1.67;;
9809;SDS011;4944;52.514;13.192;2023-04-12T03:05:32;1.87;;;1.40;;
9809;SDS011;4944;52.514;13.192;2023-04-12T03:08:00;3.03;;;1.47;;
9809;SDS011;4944;52.514;13.192;2023-04-12T03:10:28;2.17;;;1.50;;
9809;SDS011;4944;52.514;13.192;2023-04-12T03:12:55;3.37;;;1.50;;
9809;SDS011;4944;52.514;13.192;2023-04-12T03:15:22;3.33;;;1.67;;
9809;SDS011;4944;52.514;13.192;2023-04-12T03:17:49;3.27;;;1.83;;
9809;SDS011;4944;52.514;13.192;2023-04-12T03:20:16;3.53;;;1.90;;
9809;SDS011;4944;52.514;13.192;2023-04-12T03:22:44;2.23;;;1.47;;
9809;SDS011;4944;52.514;13.192;2023-04-12T03:25:11;3.33;;;1.90;;
9809;SDS011;4944;52.514;13.192;2023-04-12T03:27:39;2.07;;;1.60;;
9809;SDS011;4944;52.514;13.192;2023-04-12T03:30:06;1.73;;;1.63;;
9809;SDS011;4944;52.514;13.192;2023-04-12T03:32:35;2.57;;;1.70;;
9809;SDS011;4944;52.514;13.192;2023-04-12T03:35:02;3.67;;;1.73;;
9809;SDS011;4944;52.514;13.192;2023-04-12T03:37:31;2.10;;;1.67;;
9809;SDS011;4944;52.514;13.192;2023-04-12T03:39:59;1.93;;;1.73;;
9809;SDS011;4944;52.514;13.192;2023-04-12T03:42:26;1.83;;;1.60;;
9809;SDS011;4944;52.514;13.192;2023-04-12T03:44:55;3.90;;;1.70;;
9809;SDS011;4944;52.514;13.192;2023-04-12T03:47:22;1.80;;;1.70;;
9809;SDS011;4944;52.514;13.192;2023-04-12T03:49:49;2.93;;;2.07;;
9809;SDS011;4944;52.514;13.192;2023-04-12T03:52:19;1.70;;;1.60;;
9809;SDS011;4944;52.514;13.192;2023-04-12T03:54:45;1.80;;;1.70;;
9809;SDS011;4944;52.514;13.192;2023-04-12T03:57:12;3.33;;;1.80;;
9809;SDS011;4944;52.514;13.192;2023-04-12T03:59:40;2.33;;;1.73;;
9809;SDS011;4944;52.514;13.192;2023-04-12T04:02:08;2.57;;;1.70;;
9809;SDS011;4944;52.514;13.192;2023-04-12T04:04:35;3.57;;;2.00;;
9809;SDS011;4944;52.514;13.192;2023-04-12T04:07:03;2.23;;;2.00;;
9809;SDS011;4944;52.514;13.192;2023-04-12T04:09:31;2.40;;;1.80;;
9809;SDS011;4944;52.514;13.192;2023-04-12T04:12:00;1.80;;;1.70;;
9809;SDS011;4944;52.514;13.192;2023-04-12T04:14:27;3.93;;;2.00;;
9809;SDS011;4944;52.514;13.192;2023-04-12T04:16:54;2.00;;;1.87;;
9809;SDS011;4944;52.514;13.192;2023-04-12T04:19:22;2.77;;;1.80;;
9809;SDS011;4944;52.514;13.192;2023-04-12T04:21:49;1.93;;;1.83;;
9809;SDS011;4944;52.514;13.192;2023-04-12T04:24:16;2.57;;;2.17;;
9809;SDS011;4944;52.514;13.192;2023-04-12T04:26:46;2.13;;;1.90;;
9809;SDS011;4944;52.514;13.192;2023-04-12T04:29:14;2.83;;;1.87;;
9809;SDS011;4944;52.514;13.192;2023-04-12T04:31:42;4.13;;;2.00;;
9809;SDS011;4944;52.514;13.192;2023-04-12T04:34:10;3.73;;;2.40;;
9809;SDS011;4944;52.514;13.192;2023-04-12T04:36:39;1.90;;;1.80;;
9809;SDS011;4944;52.514;13.192;2023-04-12T04:39:06;2.63;;;2.43;;
9809;SDS011;4944;52.514;13.192;2023-04-12T04:41:33;4.57;;;2.40;;
9809;SDS011;4944;52.514;13.192;2023-04-12T04:44:03;3.07;;;2.77;;
9809;SDS011;4944;52.514;13.192;2023-04-12T04:46:33;4.50;;;2.73;;
9809;SDS011;4944;52.514;13.192;2023-04-12T04:49:01;3.30;;;3.00;;
9809;SDS011;4944;52.514;13.192;2023-04-12T04:51:29;4.77;;;2.90;;
9809;SDS011;4944;52.514;13.192;2023-04-12T04:53:57;2.80;;;2.60;;
9809;SDS011;4944;52.514;13.192;2023-04-12T04:56:26;5.67;;;3.37;;
9809;SDS011;4944;52.514;13.192;2023-04-12T04:58:53;2.70;;;2.50;;
9809;SDS011;4944;52.514;13.192;2023-04-12T05:01:19;2.87;;;2.40;;
9809;SDS011;4944;52.514;13.192;2023-04-12T05:03:49;2.50;;;2.30;;
9809;SDS011;4944;52.514;13.192;2023-04-12T05:06:16;2.47;;;2.27;;
9809;SDS011;4944;52.514;13.192;2023-04-12T05:08:43;2.50;;;2.17;;
9809;SDS011;4944;52.514;13.192;2023-04-12T05:11:11;4.60;;;2.70;;
9809;SDS011;4944;52.514;13.192;2023-04-12T05:13:38;3.63;;;2.57;;
9809;SDS011;4944;52.514;13.192;2023-04-12T05:16:05;2.63;;;2.43;;
9809;SDS011;4944;52.514;13.192;2023-04-12T05:18:33;3.37;;;2.60;;
9809;SDS011;4944;52.514;13.192;2023-04-12T05:21:00;2.57;;;2.37;;
9809;SDS011;4944;52.514;13.192;2023-04-12T05:23:28;2.90;;;2.70;;
9809;SDS011;4944;52.514;13.192;2023-04-12T05:25:55;3.57;;;2.63;;
9809;SDS011;4944;52.514;13.192;2023-04-12T05:28:23;3.00;;;2.60;;
9809;SDS011;4944;52.514;13.192;2023-04-12T05:30:50;2.60;;;2.40;;
9809;SDS011;4944;52.514;13.192;2023-04-12T05:33:17;3.70;;;2.50;;
9809;SDS011;4944;52.514;13.192;2023-04-12T05:35:44;4.33;;;2.50;;
9809;SDS011;4944;52.514;13.192;2023-04-12T05:38:11;3.80;;;2.37;;
9809;SDS011;4944;52.514;13.192;2023-04-12T05:40:38;4.10;;;2.73;;
9809;SDS011;4944;52.514;13.192;2023-04-12T05:43:06;2.63;;;2.37;;
9809;SDS011;4944;52.514;13.192;2023-04-12T05:45:37;2.53;;;2.33;;
9809;SDS011;4944;52.514;13.192;2023-04-12T05:48:04;4.03;;;2.43;;
9809;SDS011;4944;52.514;13.192;2023-04-12T05:50:31;3.80;;;2.50;;
9809;SDS011;4944;52.514;13.192;2023-04-12T05:52:59;2.67;;;2.47;;
9809;SDS011;4944;52.514;13.192;2023-04-12T05:55:26;2.67;;;2.47;;
9809;SDS011;4944;52.514;13.192;2023-04-12T05:57:53;3.20;;;2.40;;
9809;SDS011;4944;52.514;13.192;2023-04-12T06:00:20;2.63;;;2.20;;
9809;SDS011;4944;52.514;13.192;2023-04-12T06:02:48;3.43;;;2.30;;
9809;SDS011;4944;52.514;13.192;2023-04-12T06:05:16;2.70;;;2.50;;
9809;SDS011;4944;52.514;13.192;2023-04-12T06:07:43;2.53;;;2.33;;
9809;SDS011;4944;52.514;13.192;2023-04-12T06:10:12;2.93;;;2.40;;
9809;SDS011;4944;52.514;13.192;2023-04-12T06:12:40;2.60;;;2.40;;
9809;SDS011;4944;52.514;13.192;2023-04-12T06:15:07;2.43;;;2.23;;
9809;SDS011;4944;52.514;13.192;2023-04-12T06:17:35;3.60;;;3.00;;
9809;SDS011;4944;52.514;13.192;2023-04-12T06:20:04;3.00;;;2.37;;
9809;SDS011;4944;52.514;13.192;2023-04-12T06:22:33;3.90;;;2.80;;
9809;SDS011;4944;52.514;13.192;2023-04-12T06:25:00;2.97;;;2.60;;
9809;SDS011;4944;52.514;13.192;2023-04-12T06:27:27;4.00;;;2.67;;
9809;SDS011;4944;52.514;13.192;2023-04-12T06:29:54;3.23;;;2.20;;
9809;SDS011;4944;52.514;13.192;2023-04-12T06:32:21;3.50;;;2.40;;
9809;SDS011;4944;52.514;13.192;2023-04-12T06:34:48;4.43;;;2.50;;
9809;SDS011;4944;52.514;13.192;2023-04-12T06:37:16;3.13;;;2.40;;
9809;SDS011;4944;52.514;13.192;2023-04-12T06:39:43;2.23;;;2.03;;
9809;SDS011;4944;52.514;13.192;2023-04-12T06:42:10;4.10;;;2.50;;
9809;SDS011;4944;52.514;13.192;2023-04-12T06:44:38;2.57;;;2.37;;
9809;SDS011;4944;52.514;13.192;2023-04-12T06:47:05;4.53;;;2.10;;
9809;SDS011;4944;52.514;13.192;2023-04-12T06:49:32;2.77;;;1.90;;
9809;SDS011;4944;52.514;13.192;2023-04-12T06:51:59;2.83;;;2.03;;
9809;SDS011;4944;52.514;13.192;2023-04-12T06:54:27;3.47;;;1.90;;
9809;SDS011;4944;52.514;13.192;2023-04-12T06:56:54;3.90;;;1.90;;
9809;SDS011;4944;52.514;13.192;2023-04-12T06:59:21;3.23;;;2.00;;
9809;SDS011;4944;52.514;13.192;2023-04-12T07:01:48;2.83;;;1.47;;
9809;SDS011;4944;52.514;13.192;2023-04-12T07:04:15;1.63;;;1.40;;
9809;SDS011;4944;52.514;13.192;2023-04-12T07:06:42;2.90;;;1.60;;
9809;SDS011;4944;52.514;13.192;2023-04-12T07:09:09;2.13;;;1.67;;
9809;SDS011;4944;52.514;13.192;2023-04-12T07:11:37;1.47;;;1.33;;
9809;SDS011;4944;52.514;13.192;2023-04-12T07:14:04;2.03;;;1.40;;
9809;SDS011;4944;52.514;13.192;2023-04-12T07:16:31;2.10;;;1.67;;
9809;SDS011;4944;52.514;13.192;2023-04-12T07:18:58;1.50;;;1.10;;
9809;SDS011;4944;52.514;13.192;2023-04-12T07:21:25;2.77;;;1.60;;
9809;SDS011;4944;52.514;13.192;2023-04-12T07:23:52;2.13;;;1.33;;
9809;SDS011;4944;52.514;13.192;2023-04-12T07:26:20;2.40;;;1.53;;
9809;SDS011;4944;52.514;13.192;2023-04-12T07:28:48;1.20;;;1.03;;
9809;SDS011;4944;52.514;13.192;2023-04-12T07:31:15;2.67;;;1.40;;
9809;SDS011;4944;52.514;13.192;2023-04-12T07:33:42;1.90;;;1.07;;
9809;SDS011;4944;52.514;13.192;2023-04-12T07:36:09;3.53;;;1.30;;
9809;SDS011;4944;52.514;13.192;2023-04-12T07:38:37;2.40;;;1.50;;
9809;SDS011;4944;52.514;13.192;2023-04-12T07:41:04;4.40;;;1.20;;
9809;SDS011;4944;52.514;13.192;2023-04-12T07:43:31;2.10;;;1.20;;
9809;SDS011;4944;52.514;13.192;2023-04-12T07:45:59;4.37;;;1.50;;
9809;SDS011;4944;52.514;13.192;2023-04-12T07:48:28;3.47;;;1.67;;
9809;SDS011;4944;52.514;13.192;2023-04-12T07:50:55;3.57;;;1.37;;
9809;SDS011;4944;52.514;13.192;2023-04-12T07:53:23;2.83;;;1.40;;
9809;SDS011;4944;52.514;13.192;2023-04-12T07:55:51;2.40;;;1.70;;
9809;SDS011;4944;52.514;13.192;2023-04-12T07:58:20;3.73;;;1.97;;
9809;SDS011;4944;52.514;13.192;2023-04-12T08:00:47;2.23;;;1.33;;
9809;SDS011;4944;52.514;13.192;2023-04-12T08:03:16;2.30;;;1.30;;
9809;SDS011;4944;52.514;13.192;2023-04-12T08:05:44;4.40;;;2.53;;
9809;SDS011;4944;52.514;13.192;2023-04-12T08:08:17;4.23;;;1.77;;
9809;SDS011;4944;52.514;13.192;2023-04-12T08:10:44;2.07;;;1.70;;
9809;SDS011;4944;52.514;13.192;2023-04-12T08:13:11;2.60;;;1.30;;
9809;SDS011;4944;52.514;13.192;2023-04-12T08:15:38;3.10;;;1.30;;
9809;SDS011;4944;52.514;13.192;2023-04-12T08:18:05;2.47;;;1.33;;
9809;SDS011;4944;52.514;13.192;2023-04-12T08:20:33;3.70;;;1.47;;
9809;SDS011;4944;52.514;13.192;2023-04-12T08:23:00;3.70;;;1.47;;
9809;SDS011;4944;52.514;13.192;2023-04-12T08:25:27;4.60;;;1.70;;
9809;SDS011;4944;52.514;13.192;2023-04-12T08:27:54;2.67;;;1.53;;
9809;SDS011;4944;52.514;13.192;2023-04-12T08:30:21;3.17;;;1.50;;
9809;SDS011;4944;52.514;13.192;2023-04-12T08:32:51;3.13;;;1.57;;
9809;SDS011;4944;52.514;13.192;2023-04-12T08:35:18;2.00;;;1.30;;
9809;SDS011;4944;52.514;13.192;2023-04-12T08:37:46;3.37;;;1.47;;
9809;SDS011;4944;52.514;13.192;2023-04-12T08:40:14;1.90;;;1.20;;
9809;SDS011;4944;52.514;13.192;2023-04-12T08:42:41;3.60;;;1.50;;
9809;SDS011;4944;52.514;13.192;2023-04-12T08:45:09;2.87;;;1.27;;
9809;SDS011;4944;52.514;13.192;2023-04-12T08:47:37;3.30;;;1.50;;
9809;SDS011;4944;52.514;13.192;2023-04-12T08:50:06;2.70;;;1.03;;
9809;SDS011;4944;52.514;13.192;2023-04-12T08:52:35;2.60;;;1.43;;
9809;SDS011;4944;52.514;13.192;2023-04-12T08:55:04;4.37;;;1.57;;
9809;SDS011;4944;52.514;13.192;2023-04-12T08:57:32;2.87;;;1.20;;
9809;SDS011;4944;52.514;13.192;2023-04-12T09:00:01;1.77;;;1.30;;
9809;SDS011;4944;52.514;13.192;2023-04-12T09:02:29;3.00;;;1.30;;
9809;SDS011;4944;52.514;13.192;2023-04-12T09:04:56;4.47;;;1.60;;
9809;SDS011;4944;52.514;13.192;2023-04-12T09:07:23;1.47;;;1.20;;
9809;SDS011;4944;52.514;13.192;2023-04-12T09:09:52;2.87;;;1.33;;
9809;SDS011;4944;52.514;13.192;2023-04-12T09:12:20;2.53;;;1.10;;
9809;SDS011;4944;52.514;13.192;2023-04-12T09:14:48;1.97;;;1.17;;
9809;SDS011;4944;52.514;13.192;2023-04-12T09:17:31;2.53;;;1.23;;
9809;SDS011;4944;52.514;13.192;2023-04-12T09:20:00;2.50;;;1.37;;
9809;SDS011;4944;52.514;13.192;2023-04-12T09:22:31;1.70;;;1.20;;
9809;SDS011;4944;52.514;13.192;2023-04-12T09:24:59;1.97;;;1.00;;
9809;SDS011;4944;52.514;13.192;2023-04-12T09:27:27;1.93;;;1.33;;
9809;SDS011;4944;52.514;13.192;2023-04-12T09:30:05;2.27;;;1.23;;
9809;SDS011;4944;52.514;13.192;2023-04-12T09:32:33;2.00;;;1.47;;
9809;SDS011;4944;52.514;13.192;2023-04-12T09:35:00;2.27;;;1.20;;
9809;SDS011;4944;52.514;13.192;2023-04-12T09:37:29;2.73;;;1.20;;
9809;SDS011;4944;52.514;13.192;2023-04-12T09:39:59;1.77;;;1.50;;
9809;SDS011;4944;52.514;13.192;2023-04-12T09:42:29;1.70;;;1.30;;
9809;SDS011;4944;52.514;13.192;2023-04-12T09:44:56;3.03;;;1.40;;
9809;SDS011;4944;52.514;13.192;2023-04-12T09:47:34;2.33;;;1.37;;
9809;SDS011;4944;52.514;13.192;2023-04-12T09:50:03;2.50;;;1.37;;
9809;SDS011;4944;52.514;13.192;2023-04-12T09:52:34;4.23;;;1.60;;
9809;SDS011;4944;52.514;13.192;2023-04-12T09:55:02;2.17;;;1.37;;
9809;SDS011;4944;52.514;13.192;2023-04-12T09:57:36;2.67;;;1.40;;
9809;SDS011;4944;52.514;13.192;2023-04-12T10:00:06;1.70;;;1.40;;
9809;SDS011;4944;52.514;13.192;2023-04-12T10:02:39;2.30;;;1.20;;
9809;SDS011;4944;52.514;13.192;2023-04-12T10:05:08;4.17;;;1.67;;
9809;SDS011;4944;52.514;13.192;2023-04-12T10:07:38;1.80;;;1.10;;
9809;SDS011;4944;52.514;13.192;2023-04-12T10:10:07;4.20;;;1.63;;
9809;SDS011;4944;52.514;13.192;2023-04-12T10:12:38;2.90;;;1.80;;
9809;SDS011;4944;52.514;13.192;2023-04-12T10:15:06;4.43;;;1.63;;
9809;SDS011;4944;52.514;13.192;2023-04-12T10:17:38;2.30;;;1.60;;
9809;SDS011;4944;52.514;13.192;2023-04-12T10:20:09;6.23;;;1.93;;
9809;SDS011;4944;52.514;13.192;2023-04-12T10:22:37;3.03;;;1.23;;
9809;SDS011;4944;52.514;13.192;2023-04-12T10:25:08;1.60;;;1.30;;
9809;SDS011;4944;52.514;13.192;2023-04-12T10:27:39;2.97;;;1.57;;
9809;SDS011;4944;52.514;13.192;2023-04-12T10:30:23;5.83;;;1.77;;
9809;SDS011;4944;52.514;13.192;2023-04-12T10:35:56;2.57;;;1.40;;
9809;SDS011;4944;52.514;13.192;2023-04-12T10:38:27;3.43;;;1.50;;
9809;SDS011;4944;52.514;13.192;2023-04-12T10:41:06;2.90;;;1.20;;
9809;SDS011;4944;52.514;13.192;2023-04-12T10:43:42;2.67;;;1.50;;
9809;SDS011;4944;52.514;13.192;2023-04-12T10:49:15;2.10;;;1.50;;
9809;SDS011;4944;52.514;13.192;2023-04-12T10:54:38;3.27;;;1.40;;
9809;SDS011;4944;52.514;13.192;2023-04-12T10:57:05;2.93;;;1.43;;
9809;SDS011;4944;52.514;13.192;2023-04-12T10:59:53;3.63;;;1.60;;
9809;SDS011;4944;52.514;13.192;2023-04-12T11:02:23;3.40;;;1.93;;
9809;SDS011;4944;52.514;13.192;2023-04-12T11:07:37;1.63;;;1.30;;
9809;SDS011;4944;52.514;13.192;2023-04-12T11:10:08;4.07;;;1.30;;
9809;SDS011;4944;52.514;13.192;2023-04-12T11:12:38;4.33;;;1.20;;
9809;SDS011;4944;52.514;13.192;2023-04-12T11:15:10;2.43;;;1.50;;
9809;SDS011;4944;52.514;13.192;2023-04-12T11:17:38;3.47;;;1.40;;
9809;SDS011;4944;52.514;13.192;2023-04-12T11:20:06;2.87;;;1.27;;
9809;SDS011;4944;52.514;13.192;2023-04-12T11:22:36;1.70;;;1.40;;
9809;SDS011;4944;52.514;13.192;2023-04-12T11:25:04;2.60;;;1.40;;
9809;SDS011;4944;52.514;13.192;2023-04-12T11:27:32;3.13;;;1.43;;
9809;SDS011;4944;52.514;13.192;2023-04-12T11:30:02;2.00;;;1.20;;
9809;SDS011;4944;52.514;13.192;2023-04-12T11:32:31;1.57;;;0.97;;
9809;SDS011;4944;52.514;13.192;2023-04-12T11:34:59;3.20;;;1.23;;
9809;SDS011;4944;52.514;13.192;2023-04-12T11:37:27;2.50;;;1.40;;
9809;SDS011;4944;52.514;13.192;2023-04-12T11:39:56;3.37;;;1.40;;
9809;SDS011;4944;52.514;13.192;2023-04-12T11:42:24;3.10;;;1.53;;
9809;SDS011;4944;52.514;13.192;2023-04-12T11:44:53;3.23;;;1.40;;
9809;SDS011;4944;52.514;13.192;2023-04-12T11:47:21;1.23;;;1.03;;
9809;SDS011;4944;52.514;13.192;2023-04-12T11:49:50;4.27;;;1.73;;
9809;SDS011;4944;52.514;13.192;2023-04-12T11:52:19;1.50;;;1.10;;
9809;SDS011;4944;52.514;13.192;2023-04-12T11:54:47;1.77;;;1.10;;
9809;SDS011;4944;52.514;13.192;2023-04-12T11:57:15;2.37;;;1.47;;
9809;SDS011;4944;52.514;13.192;2023-04-12T11:59:44;2.77;;;1.37;;
9809;SDS011;4944;52.514;13.192;2023-04-12T12:02:12;4.93;;;1.40;;
9809;SDS011;4944;52.514;13.192;2023-04-12T12:04:40;1.83;;;1.20;;
9809;SDS011;4944;52.514;13.192;2023-04-12T12:07:11;2.93;;;1.33;;
9809;SDS011;4944;52.514;13.192;2023-04-12T12:09:40;1.73;;;1.20;;
9809;SDS011;4944;52.514;13.192;2023-04-12T12:12:08;2.47;;;1.27;;
9809;SDS011;4944;52.514;13.192;2023-04-12T12:14:36;1.43;;;1.03;;
9809;SDS011;4944;52.514;13.192;2023-04-12T12:17:08;2.60;;;1.37;;
9809;SDS011;4944;52.514;13.192;2023-04-12T12:19:37;2.17;;;1.30;;
9809;SDS011;4944;52.514;13.192;2023-04-12T12:22:13;1.50;;;1.17;;
9809;SDS011;4944;52.514;13.192;2023-04-12T12:24:44;2.30;;;1.33;;
9809;SDS011;4944;52.514;13.192;2023-04-12T12:27:16;2.40;;;1.37;;
9809;SDS011;4944;52.514;13.192;2023-04-12T12:29:47;1.90;;;1.03;;
9809;SDS011;4944;52.514;13.192;2023-04-12T12:32:15;2.13;;;1.17;;
9809;SDS011;4944;52.514;13.192;2023-04-12T12:34:48;3.40;;;1.27;;
9809;SDS011;4944;52.514;13.192;2023-04-12T12:37:21;1.30;;;1.20;;
9809;SDS011;4944;52.514;13.192;2023-04-12T12:39:59;2.37;;;1.07;;
9809;SDS011;4944;52.514;13.192;2023-04-12T12:42:31;1.83;;;1.00;;
9809;SDS011;4944;52.514;13.192;2023-04-12T12:44:59;1.97;;;1.00;;
9809;SDS011;4944;52.514;13.192;2023-04-12T12:47:28;3.97;;;1.23;;
9809;SDS011;4944;52.514;13.192;2023-04-12T12:49:55;2.67;;;1.00;;
9809;SDS011;4944;52.514;13.192;2023-04-12T12:52:24;1.93;;;1.40;;
9809;SDS011;4944;52.514;13.192;2023-04-12T12:54:51;2.10;;;1.37;;
9809;SDS011;4944;52.514;13.192;2023-04-12T12:57:18;1.40;;;1.07;;
9809;SDS011;4944;52.514;13.192;2023-04-12T12:59:44;3.43;;;0.90;;
9809;SDS011;4944;52.514;13.192;2023-04-12T13:02:11;1.67;;;1.23;;
9809;SDS011;4944;52.514;13.192;2023-04-12T13:04:39;2.83;;;1.27;;
9809;SDS011;4944;52.514;13.192;2023-04-12T13:07:07;1.27;;;1.00;;
9809;SDS011;4944;52.514;13.192;2023-04-12T13:09:35;2.67;;;1.33;;
9809;SDS011;4944;52.514;13.192;2023-04-12T13:12:02;2.90;;;1.17;;
9809;SDS011;4944;52.514;13.192;2023-04-12T13:14:29;2.40;;;1.13;;
9809;SDS011;4944;52.514;13.192;2023-04-12T13:16:56;2.33;;;1.37;;
9809;SDS011;4944;52.514;13.192;2023-04-12T13:19:23;2.07;;;1.20;;
9809;SDS011;4944;52.514;13.192;2023-04-12T13:21:49;1.63;;;1.20;;
9809;SDS011;4944;52.514;13.192;2023-04-12T13:24:16;2.30;;;1.20;;
9809;SDS011;4944;52.514;13.192;2023-04-12T13:26:45;1.70;;;1.20;;
9809;SDS011;4944;52.514;13.192;2023-04-12T13:29:13;2.63;;;1.20;;
9809;SDS011;4944;52.514;13.192;2023-04-12T13:31:44;1.60;;;1.10;;
9809;SDS011;4944;52.514;13.192;2023-04-12T13:34:11;1.67;;;1.20;;
9809;SDS011;4944;52.514;13.192;2023-04-12T13:36:38;2.40;;;1.40;;
9809;SDS011;4944;52.514;13.192;2023-04-12T13:39:05;1.20;;;1.10;;
9809;SDS011;4944;52.514;13.192;2023-04-12T13:41:32;1.40;;;1.00;;
9809;SDS011;4944;52.514;13.192;2023-04-12T13:44:01;2.57;;;1.43;;
9809;SDS011;4944;52.514;13.192;2023-04-12T13:46:28;2.40;;;1.17;;
9809;SDS011;4944;52.514;13.192;2023-04-12T13:48:56;1.77;;;1.20;;
9809;SDS011;4944;52.514;13.192;2023-04-12T13:51:23;9.80;;;1.63;;
9809;SDS011;4944;52.514;13.192;2023-04-12T13:53:52;1.53;;;1.17;;
9809;SDS011;4944;52.514;13.192;2023-04-12T13:56:20;2.03;;;0.93;;
9809;SDS011;4944;52.514;13.192;2023-04-12T13:58:47;2.97;;;1.27;;
9809;SDS011;4944;52.514;13.192;2023-04-12T14:01:19;2.13;;;0.90;;
9809;SDS011;4944;52.514;13.192;2023-04-12T14:03:48;2.60;;;1.10;;
9809;SDS011;4944;52.514;13.192;2023-04-12T14:06:17;1.90;;;1.40;;
9809;SDS011;4944;52.514;13.192;2023-04-12T14:08:45;3.70;;;1.20;;
9809;SDS011;4944;52.514;13.192;2023-04-12T14:11:12;2.33;;;1.30;;
9809;SDS011;4944;52.514;13.192;2023-04-12T14:13:40;1.57;;;0.80;;
9809;SDS011;4944;52.514;13.192;2023-04-12T14:16:08;2.03;;;1.10;;
9809;SDS011;4944;52.514;13.192;2023-04-12T14:18:39;1.73;;;0.93;;
9809;SDS011;4944;52.514;13.192;2023-04-12T14:21:07;3.53;;;1.70;;
9809;SDS011;4944;52.514;13.192;2023-04-12T14:23:38;2.03;;;1.10;;
9809;SDS011;4944;52.514;13.192;2023-04-12T14:26:06;1.60;;;0.97;;
9809;SDS011;4944;52.514;13.192;2023-04-12T14:28:36;0.87;;;0.87;;
9809;SDS011;4944;52.514;13.192;2023-04-12T14:31:04;3.20;;;1.27;;
9809;SDS011;4944;52.514;13.192;2023-04-12T14:33:31;1.20;;;1.00;;
9809;SDS011;4944;52.514;13.192;2023-04-12T14:36:00;1.43;;;1.10;;
9809;SDS011;4944;52.514;13.192;2023-04-12T14:38:29;4.10;;;1.37;;
9809;SDS011;4944;52.514;13.192;2023-04-12T14:40:56;2.77;;;1.10;;
9809;SDS011;4944;52.514;13.192;2023-04-12T14:43:23;1.83;;;0.93;;
9809;SDS011;4944;52.514;13.192;2023-04-12T14:45:51;1.77;;;1.20;;
9809;SDS011;4944;52.514;13.192;2023-04-12T14:48:18;1.93;;;1.10;;
9809;SDS011;4944;52.514;13.192;2023-04-12T14:50:45;1.10;;;1.00;;
9809;SDS011;4944;52.514;13.192;2023-04-12T14:53:14;4.87;;;1.27;;
9809;SDS011;4944;52.514;13.192;2023-04-12T14:55:43;2.60;;;1.10;;
9809;SDS011;4944;52.514;13.192;2023-04-12T14:58:12;2.47;;;1.27;;
9809;SDS011;4944;52.514;13.192;2023-04-12T15:00:39;3.43;;;1.30;;
9809;SDS011;4944;52.514;13.192;2023-04-12T15:03:06;1.93;;;1.30;;
9809;SDS011;4944;52.514;13.192;2023-04-12T15:05:34;1.73;;;1.20;;
9809;SDS011;4944;52.514;13.192;2023-04-12T15:08:02;4.30;;;1.20;;
9809;SDS011;4944;52.514;13.192;2023-04-12T15:10:30;2.13;;;1.40;;
9809;SDS011;4944;52.514;13.192;2023-04-12T15:12:58;2.43;;;1.30;;
9809;SDS011;4944;52.514;13.192;2023-04-12T15:15:25;1.23;;;1.20;;
9809;SDS011;4944;52.514;13.192;2023-04-12T15:17:52;1.30;;;1.20;;
9809;SDS011;4944;52.514;13.192;2023-04-12T15:20:19;1.70;;;0.93;;